Time;durP1;ratioP1;P1;durP2;ratioP2;P2;SDS_P1;SDS_P2;PMS_P1;PMS_P2;Temp;Humidity;BMP_temperature;BMP_pressure;BME280_temperature;BME280_humidity;BME280_pressure;Samples;Min_cycle;Max_cycle;Signal;HPM_P1;HPM_P2
2021/03/04 00:00:49;;;;;;;10.72;6.20;;;;;;;1.60;66.59;100945.55;1728820;81;21178;-58
2021/03/04 00:03:18;;;;;;;12.45;6.37;;;;;;;1.58;66.62;100943.00;1782149;78;21187;-58
2021/03/04 00:05:46;;;;;;;12.30;7.10;;;;;;;1.60;66.63;100936.47;1721983;81;21168;-58
2021/03/04 00:08:15;;;;;;;11.83;6.92;;;;;;;1.57;66.72;100928.33;1791858;79;21713;-58
2021/03/04 00:10:42;;;;;;;12.55;6.35;;;;;;;1.59;66.71;100918.73;1750081;81;21136;-58
2021/03/04 00:13:11;;;;;;;12.82;7.47;;;;;;;1.57;66.72;100915.36;1746777;81;21382;-58
2021/03/04 00:15:41;;;;;;;11.38;6.20;;;;;;;1.56;66.68;100913.65;1770462;80;21879;-58
2021/03/04 00:18:10;;;;;;;11.38;6.65;;;;;;;1.54;66.76;100904.24;1774561;79;21167;-58
2021/03/04 00:20:38;;;;;;;11.75;6.62;;;;;;;1.52;66.77;100903.00;1773866;79;21177;-58
2021/03/04 00:23:05;;;;;;;12.45;7.08;;;;;;;1.47;66.97;100906.20;1768132;80;21163;-59
2021/03/04 00:25:35;;;;;;;12.70;7.08;;;;;;;1.44;66.96;100896.76;1773291;80;21282;-59
2021/03/04 00:28:03;;;;;;;12.00;6.80;;;;;;;1.40;67.06;100891.75;1773139;79;21148;-59
2021/03/04 00:30:32;;;;;;;13.80;7.05;;;;;;;1.40;67.07;100892.59;1770310;79;21191;-59
2021/03/04 00:33:00;;;;;;;11.22;6.62;;;;;;;1.37;67.15;100884.91;1773868;80;21153;-59
2021/03/04 00:35:29;;;;;;;12.37;6.65;;;;;;;1.35;67.28;100887.17;1777394;80;21178;-59
2021/03/04 00:37:57;;;;;;;17.52;7.55;;;;;;;1.30;67.38;100882.97;1776978;79;21419;-59
2021/03/04 00:40:24;;;;;;;12.20;5.95;;;;;;;1.29;67.42;100877.41;1776284;79;21179;-77
2021/03/04 00:42:52;;;;;;;12.73;6.72;;;;;;;1.29;67.45;100879.12;1771713;80;21099;-78
2021/03/04 00:45:22;;;;;;;13.72;7.42;;;;;;;1.29;67.42;100875.23;1777190;79;21127;-77
2021/03/04 00:47:51;;;;;;;13.95;7.40;;;;;;;1.29;67.45;100877.83;1749269;80;21615;-77
2021/03/04 00:50:20;;;;;;;11.10;6.33;;;;;;;1.30;67.40;100866.11;1779985;78;21899;-78
2021/03/04 00:52:50;;;;;;;14.95;7.33;;;;;;;1.27;67.48;100867.51;1808065;78;21152;-78
2021/03/04 00:55:17;;;;;;;13.22;7.62;;;;;;;1.29;67.49;100865.73;1743408;80;21190;-74
2021/03/04 00:57:45;;;;;;;11.73;6.70;;;;;;;1.32;67.56;100862.64;1790802;78;21129;-76
2021/03/04 01:00:15;;;;;;;14.80;6.87;;;;;;;1.34;67.63;100858.23;1774527;80;21166;-77
2021/03/04 01:02:42;;;;;;;19.37;8.93;;;;;;;1.32;67.69;100843.19;1771764;80;21443;-75
2021/03/04 01:05:12;;;;;;;12.40;7.12;;;;;;;1.30;67.79;100847.97;1782796;79;21129;-76
2021/03/04 01:07:41;;;;;;;14.75;8.60;;;;;;;1.30;67.96;100840.65;1809086;78;21544;-76
2021/03/04 01:10:11;;;;;;;18.12;8.55;;;;;;;1.31;67.93;100835.84;1784623;79;21148;-77
2021/03/04 01:12:39;;;;;;;16.40;8.48;;;;;;;1.32;68.03;100831.52;1753754;79;21542;-73
2021/03/04 01:15:13;;;;;;;16.70;9.45;;;;;;;1.37;68.02;100842.12;1776622;80;21200;-76
2021/03/04 01:17:40;;;;;;;15.50;9.85;;;;;;;1.36;68.13;100831.80;1756097;80;21610;-76
2021/03/04 01:20:12;;;;;;;16.45;9.95;;;;;;;1.36;68.17;100833.09;1771439;80;21627;-71
2021/03/04 01:22:40;;;;;;;16.12;10.15;;;;;;;1.33;68.41;100822.40;1774000;80;21607;-78
2021/03/04 01:25:09;;;;;;;19.87;10.98;;;;;;;1.30;68.57;100812.12;1769492;80;21143;-76
2021/03/04 01:27:37;;;;;;;20.48;11.43;;;;;;;1.27;68.71;100806.59;1792077;79;21201;-77
2021/03/04 01:30:07;;;;;;;17.55;10.23;;;;;;;1.33;68.75;100805.55;1777652;78;21123;-74
2021/03/04 01:32:35;;;;;;;19.32;10.50;;;;;;;1.39;68.71;100800.13;1783773;80;21214;-74
2021/03/04 01:35:04;;;;;;;18.17;8.95;;;;;;;1.43;68.68;100804.75;1786130;78;21184;-75
2021/03/04 01:37:31;;;;;;;18.85;10.25;;;;;;;1.40;68.76;100799.70;1804760;78;21125;-74
2021/03/04 01:39:59;;;;;;;19.82;9.98;;;;;;;1.39;68.83;100797.98;1804972;78;21733;-74
2021/03/04 01:42:26;;;;;;;16.60;10.85;;;;;;;1.36;69.00;100797.66;1767989;80;21240;-73
2021/03/04 01:44:53;;;;;;;21.75;11.40;;;;;;;1.31;69.31;100789.17;1790193;79;21128;-75
2021/03/04 01:47:21;;;;;;;17.57;10.98;;;;;;;1.25;69.45;100783.77;1774171;79;21199;-76
2021/03/04 01:49:50;;;;;;;18.12;10.68;;;;;;;1.22;69.55;100778.68;1785886;78;21217;-76
2021/03/04 01:52:17;;;;;;;23.87;11.75;;;;;;;1.21;69.65;100773.12;1749284;80;21976;-73
2021/03/04 01:54:46;;;;;;;21.12;11.57;;;;;;;1.19;69.86;100777.48;1769500;78;21210;-75
2021/03/04 01:57:13;;;;;;;18.15;10.70;;;;;;;1.16;70.18;100780.20;1779744;80;21091;-75
2021/03/04 01:59:41;;;;;;;19.87;10.48;;;;;;;1.11;70.58;100774.34;1772270;80;21160;-75
2021/03/04 02:02:10;;;;;;;25.57;13.45;;;;;;;1.07;70.76;100771.44;1757174;79;21128;-74
2021/03/04 02:04:38;;;;;;;20.10;11.97;;;;;;;1.15;70.91;100766.84;1788830;79;21135;-77
2021/03/04 02:07:28;;;;;;;23.50;12.20;;;;;;;1.21;70.83;100760.58;1772582;79;21128;-74
2021/03/04 02:10:19;;;;;;;18.92;11.03;;;;;;;1.26;70.94;100756.95;1788298;79;22363;-76
2021/03/04 02:13:30;;;;;;;18.02;11.43;;;;;;;1.21;71.10;100748.92;1692999;81;21231;-78
2021/03/04 02:16:20;;;;;;;24.63;11.80;;;;;;;1.16;71.31;100749.11;1743800;79;21535;-75
2021/03/04 02:18:53;;;;;;;17.17;10.48;;;;;;;1.14;71.39;100738.37;1785841;79;21195;-74
2021/03/04 02:21:44;;;;;;;25.77;12.45;;;;;;;1.19;71.31;100736.47;1791458;79;21642;-78
2021/03/04 02:24:29;;;;;;;21.93;12.05;;;;;;;1.21;71.19;100725.16;1788731;79;21147;-77
2021/03/04 02:27:03;;;;;;;;;;;;;;;1.25;71.15;100722.84;1781249;79;21123;-75
2021/03/04 02:29:51;;;;;;;22.85;12.20;;;;;;;1.31;71.16;100719.17;1752120;79;20285;-75
2021/03/04 02:32:23;;;;;;;22.07;12.07;;;;;;;1.29;71.22;100716.66;1789452;79;22611;-75
2021/03/04 02:34:56;;;;;;;24.05;13.08;;;;;;;1.26;71.38;100716.77;1754295;79;21179;-75
2021/03/04 02:37:24;;;;;;;19.67;11.80;;;;;;;1.29;71.46;100705.00;1770477;80;21174;-75
2021/03/04 02:39:53;;;;;;;20.60;11.35;;;;;;;1.41;71.29;100689.86;1776023;78;21191;-76
2021/03/04 02:42:22;;;;;;;20.32;11.73;;;;;;;1.50;71.24;100697.32;1781681;80;21124;-73
2021/03/04 02:44:53;;;;;;;21.68;11.70;;;;;;;1.56;71.23;100689.29;1758011;81;21619;-73
2021/03/04 02:47:22;;;;;;;22.98;11.80;;;;;;;1.52;71.37;100686.89;1772020;80;21169;-74
2021/03/04 02:49:51;;;;;;;25.70;12.93;;;;;;;1.45;71.68;100678.50;1772749;80;21153;-73
2021/03/04 02:52:19;;;;;;;20.27;11.12;;;;;;;1.41;71.88;100669.12;1777209;78;21192;-71
2021/03/04 02:54:47;;;;;;;24.07;11.68;;;;;;;1.38;72.18;100675.28;1775710;78;21171;-77
2021/03/04 02:57:14;;;;;;;29.52;14.10;;;;;;;1.40;72.21;100672.64;1735779;81;21386;-73
2021/03/04 02:59:42;;;;;;;25.15;12.40;;;;;;;1.41;72.24;100663.94;1753479;80;21532;-76
2021/03/04 03:02:11;;;;;;;27.67;14.28;;;;;;;1.42;72.30;100659.99;1768395;80;21175;-73
2021/03/04 03:04:40;;;;;;;27.00;13.50;;;;;;;1.54;72.14;100657.38;1744227;80;21187;-75
2021/03/04 03:07:08;;;;;;;23.18;14.00;;;;;;;1.69;71.88;100649.47;1736799;81;21167;-77
2021/03/04 03:09:38;;;;;;;24.67;14.87;;;;;;;1.79;71.71;100644.31;1774979;80;21210;-78
2021/03/04 03:12:08;;;;;;;20.95;13.78;;;;;;;1.87;71.55;100646.61;1775535;80;21193;-77
2021/03/04 03:14:35;;;;;;;26.10;13.43;;;;;;;1.90;71.53;100634.81;1751334;81;21124;-74
2021/03/04 03:17:06;;;;;;;26.10;13.55;;;;;;;1.89;71.50;100634.41;1773874;80;21214;-74
2021/03/04 03:19:35;;;;;;;23.90;13.78;;;;;;;1.85;71.56;100627.21;1769465;79;21109;-72
2021/03/04 03:22:02;;;;;;;24.87;13.50;;;;;;;1.83;71.64;100625.56;1765857;80;21380;-78
2021/03/04 03:24:30;;;;;;;27.22;14.33;;;;;;;1.80;71.79;100625.69;1740950;81;21192;-77
2021/03/04 03:26:57;;;;;;;29.65;15.13;;;;;;;1.80;71.80;100614.01;1773680;80;21612;-76
2021/03/04 03:29:25;;;;;;;27.55;14.63;;;;;;;1.81;71.80;100602.73;1772824;80;21192;-77
2021/03/04 03:31:53;;;;;;;24.18;14.55;;;;;;;1.82;71.76;100601.84;1770342;80;21172;-76
2021/03/04 03:34:22;;;;;;;26.07;14.07;;;;;;;1.94;71.58;100600.04;1737413;80;21158;-73
2021/03/04 03:36:49;;;;;;;24.00;14.23;;;;;;;2.10;71.24;100602.87;1734360;80;21128;-75
2021/03/04 03:39:17;;;;;;;22.82;13.85;;;;;;;2.21;71.01;100602.41;1773436;79;21182;-77
2021/03/04 03:41:45;;;;;;;25.27;15.23;;;;;;;2.27;70.86;100587.88;1769079;79;21128;-76
2021/03/04 03:44:13;;;;;;;25.45;12.73;;;;;;;2.27;70.75;100585.28;1743204;80;21151;-76
2021/03/04 03:46:41;;;;;;;23.60;14.70;;;;;;;2.22;70.68;100582.87;1773032;80;21197;-75
2021/03/04 03:49:12;;;;;;;26.55;14.35;;;;;;;2.17;70.67;100578.77;1748537;81;21211;-76
2021/03/04 03:51:40;;;;;;;22.95;13.68;;;;;;;2.12;70.66;100578.11;1745645;80;21226;-77
2021/03/04 03:54:08;;;;;;;25.82;14.80;;;;;;;2.09;70.69;100578.27;1726923;82;21227;-77
2021/03/04 03:56:37;;;;;;;25.55;13.90;;;;;;;2.08;70.68;100565.72;1761866;80;21164;-77
2021/03/04 03:59:05;;;;;;;25.25;14.70;;;;;;;2.10;70.62;100563.92;1757963;80;21462;-73
2021/03/04 04:01:35;;;;;;;23.55;14.00;;;;;;;2.14;70.47;100555.55;1773918;80;21167;-78
2021/03/04 04:04:03;;;;;;;25.35;13.78;;;;;;;2.17;70.30;100557.99;1764266;80;21180;-77
2021/03/04 04:06:32;;;;;;;21.73;12.90;;;;;;;2.28;69.98;100544.57;1775543;80;21183;-76
2021/03/04 04:08:59;;;;;;;24.92;13.70;;;;;;;2.36;69.75;100547.22;1783189;79;21136;-75
2021/03/04 04:11:29;;;;;;;20.65;12.45;;;;;;;2.44;69.60;100534.34;1782021;79;21591;-75
2021/03/04 04:13:57;;;;;;;21.20;13.30;;;;;;;2.44;69.44;100527.42;1764192;80;21190;-75
2021/03/04 04:16:25;;;;;;;26.35;14.80;;;;;;;2.41;69.23;100528.39;1758897;80;21580;-73
2021/03/04 04:18:54;;;;;;;22.95;12.60;;;;;;;2.35;69.08;100520.85;1720813;80;21630;-75
2021/03/04 04:21:21;;;;;;;23.18;13.85;;;;;;;2.28;68.95;100521.20;1771352;79;21112;-75
2021/03/04 04:23:50;;;;;;;19.35;12.07;;;;;;;2.15;68.94;100519.14;1773423;79;21308;-75
2021/03/04 04:26:18;;;;;;;23.45;13.10;;;;;;;2.03;68.97;100504.08;1772758;80;21160;-76
2021/03/04 04:28:46;;;;;;;22.80;14.05;;;;;;;1.92;69.08;100504.55;1767862;80;21775;-75
2021/03/04 04:31:14;;;;;;;22.58;11.97;;;;;;;1.82;69.22;100487.67;1739318;80;21162;-75
2021/03/04 04:33:42;;;;;;;22.00;12.35;;;;;;;1.75;69.37;100482.33;1758854;81;21183;-73
2021/03/04 04:36:09;;;;;;;21.65;12.50;;;;;;;1.67;69.48;100475.72;1740336;81;21220;-72
2021/03/04 04:38:37;;;;;;;21.27;12.82;;;;;;;1.67;69.54;100475.72;1756341;79;21167;-74
2021/03/04 04:41:06;;;;;;;20.43;13.00;;;;;;;1.66;69.40;100474.05;1760626;80;21659;-72
2021/03/04 04:43:34;;;;;;;21.87;13.72;;;;;;;1.66;69.39;100468.86;1756562;80;21623;-72
2021/03/04 04:46:01;;;;;;;21.02;12.07;;;;;;;1.66;69.33;100473.19;1767675;80;21132;-78
2021/03/04 04:48:30;;;;;;;22.98;12.75;;;;;;;1.69;69.18;100468.34;1799595;77;22104;-73
2021/03/04 04:50:59;;;;;;;20.72;11.80;;;;;;;1.67;69.13;100453.67;1811000;78;21904;-73
2021/03/04 04:53:26;;;;;;;21.42;11.55;;;;;;;1.67;68.99;100434.68;1760990;78;21215;-60
2021/03/04 04:55:53;;;;;;;18.98;12.18;;;;;;;1.66;68.91;100435.58;1772572;80;21112;-60
2021/03/04 04:58:21;;;;;;;22.67;11.40;;;;;;;1.67;68.95;100445.06;1780509;79;21179;-63
2021/03/04 05:00:49;;;;;;;23.07;12.05;;;;;;;1.66;68.88;100435.14;1748910;80;21176;-60
2021/03/04 05:03:16;;;;;;;19.50;12.58;;;;;;;1.69;68.73;100434.16;1782700;80;21631;-60
2021/03/04 05:05:44;;;;;;;24.25;12.88;;;;;;;1.66;68.74;100435.14;1800312;79;21196;-60
2021/03/04 05:08:12;;;;;;;24.60;13.22;;;;;;;1.68;68.74;100441.53;1796938;78;21096;-60
2021/03/04 05:10:39;;;;;;;21.05;12.33;;;;;;;1.66;68.72;100436.87;1762091;79;21220;-60
2021/03/04 05:13:06;;;;;;;21.70;13.22;;;;;;;1.66;68.70;100435.14;1788163;79;22207;-59
2021/03/04 05:15:34;;;;;;;18.40;11.20;;;;;;;1.65;68.75;100439.93;1773359;80;21223;-59
2021/03/04 05:18:02;;;;;;;19.12;11.03;;;;;;;1.70;68.77;100433.26;1802129;78;21179;-59
2021/03/04 05:20:30;;;;;;;21.87;12.85;;;;;;;1.72;68.80;100430.14;1789338;79;21195;-59
2021/03/04 05:22:58;;;;;;;22.77;12.63;;;;;;;1.75;68.81;100421.36;1818278;78;21192;-59
2021/03/04 05:25:27;;;;;;;29.70;13.65;;;;;;;1.76;68.86;100414.81;1768813;77;21203;-59
2021/03/04 05:27:55;;;;;;;23.25;13.72;;;;;;;1.81;68.85;100418.05;1820252;77;21466;-60
2021/03/04 05:30:24;;;;;;;26.37;13.30;;;;;;;1.82;68.86;100414.56;1780246;79;21595;-60
2021/03/04 05:32:51;;;;;;;20.97;12.55;;;;;;;1.84;68.90;100407.55;1781326;80;21187;-60
2021/03/04 05:35:19;;;;;;;23.00;12.07;;;;;;;1.87;68.98;100409.18;1777646;78;21128;-60
2021/03/04 05:37:47;;;;;;;25.82;14.38;;;;;;;1.93;68.96;100402.41;1771010;80;21224;-60
2021/03/04 05:40:16;;;;;;;22.32;13.22;;;;;;;1.98;68.92;100410.83;1782682;78;21247;-60
2021/03/04 05:42:43;;;;;;;22.82;14.13;;;;;;;2.00;68.84;100401.25;1773535;78;21215;-60
2021/03/04 05:45:12;;;;;;;26.62;14.23;;;;;;;2.03;68.84;100393.33;1771096;78;21626;-60
2021/03/04 05:47:42;;;;;;;22.15;14.28;;;;;;;2.08;68.87;100387.08;1758088;80;21231;-60
2021/03/04 05:50:17;;;;;;;21.77;13.03;;;;;;;2.11;68.86;100374.80;1779213;79;22265;-60
2021/03/04 05:53:07;;;;;;;24.23;14.28;;;;;;;2.22;68.72;100375.17;1777609;79;21218;-62
2021/03/04 05:55:34;;;;;;;20.95;13.35;;;;;;;2.37;68.54;100376.22;1792553;78;21162;-61
2021/03/04 05:58:02;;;;;;;24.10;15.18;;;;;;;2.53;68.24;100372.91;1786052;78;21427;-60
2021/03/04 06:00:29;;;;;;;23.20;14.65;;;;;;;2.61;68.19;100366.91;1789818;78;21629;-61
2021/03/04 06:02:57;;;;;;;23.73;13.90;;;;;;;2.68;68.09;100360.96;1786728;78;22388;-60
2021/03/04 06:05:25;;;;;;;29.37;15.60;;;;;;;2.71;67.98;100353.86;1783405;79;21565;-61
2021/03/04 06:07:53;;;;;;;24.65;14.18;;;;;;;2.72;67.89;100354.25;1779720;79;21677;-59
2021/03/04 06:10:21;;;;;;;21.77;14.53;;;;;;;2.73;67.94;100348.59;1785132;79;21239;-61
2021/03/04 06:12:49;;;;;;;28.32;15.75;;;;;;;2.70;67.88;100349.56;1792527;78;21203;-61
2021/03/04 06:15:17;;;;;;;25.52;14.20;;;;;;;2.70;67.94;100350.86;1781764;78;21262;-61
2021/03/04 06:17:54;;;;;;;26.77;15.48;;;;;;;2.73;67.97;100345.52;1785998;80;21210;-60
2021/03/04 06:20:22;;;;;;;27.22;15.13;;;;;;;2.82;67.89;100352.49;1809833;78;21163;-60
2021/03/04 06:22:51;;;;;;;25.55;15.23;;;;;;;2.84;67.82;100344.16;1777186;78;21460;-61
2021/03/04 06:25:20;;;;;;;27.67;16.00;;;;;;;2.94;67.75;100338.45;1809622;78;21192;-61
2021/03/04 06:27:48;;;;;;;25.57;14.93;;;;;;;3.14;67.48;100331.41;1810503;78;21258;-60
2021/03/04 06:30:18;;;;;;;28.10;15.00;;;;;;;3.32;67.20;100330.48;1783555;79;21186;-60
2021/03/04 06:33:03;;;;;;;23.18;14.50;;;;;;;3.46;66.84;100323.30;1788541;78;21183;-61
2021/03/04 06:35:33;;;;;;;28.60;15.58;;;;;;;3.52;66.58;100322.96;1788511;78;21159;-62
2021/03/04 06:38:16;;;;;;;26.85;14.55;;;;;;;3.57;66.63;100316.23;1762017;80;21134;-62
2021/03/04 06:40:43;;;;;;;30.72;15.55;;;;;;;3.63;66.53;100308.55;1768786;80;21759;-61
2021/03/04 06:43:19;;;;;;;31.10;15.43;;;;;;;3.68;66.44;100304.81;1746742;81;21234;-62
2021/03/04 06:45:47;;;;;;;26.17;15.83;;;;;;;3.74;66.35;100302.33;1783891;78;21227;-60
2021/03/04 06:48:17;;;;;;;22.90;14.70;;;;;;;3.82;66.07;100291.53;1816223;78;21175;-57
2021/03/04 06:52:31;;;;;;;24.80;15.03;;;;;;;3.96;65.89;100277.77;1860867;76;23184;-59
2021/03/04 06:55:10;;;;;;;24.65;15.43;;;;;;;3.94;65.73;100278.31;1841655;75;21681;-58
2021/03/04 06:57:38;;;;;;;24.82;15.35;;;;;;;4.06;65.61;100277.64;1829151;75;21209;-60
2021/03/04 07:00:18;;;;;;;28.17;15.60;;;;;;;4.27;64.99;100262.61;1838371;75;21855;-61
2021/03/04 07:02:56;;;;;;;25.27;14.80;;;;;;;4.38;64.63;100268.03;1818670;77;21218;-61
2021/03/04 07:05:25;;;;;;;21.42;13.18;;;;;;;4.45;64.45;100262.02;1842256;76;21100;-60
2021/03/04 07:07:57;;;;;;;27.73;15.68;;;;;;;4.52;64.25;100262.51;1809557;77;21119;-60
2021/03/04 07:10:27;;;;;;;28.40;15.00;;;;;;;4.58;64.17;100259.09;1829015;76;21187;-59
2021/03/04 07:12:55;;;;;;;26.20;14.40;;;;;;;4.68;63.88;100254.67;1811897;77;21194;-59
2021/03/04 07:15:23;;;;;;;28.38;16.20;;;;;;;4.73;63.48;100238.30;1861189;75;21222;-60
2021/03/04 07:17:50;;;;;;;32.88;15.63;;;;;;;4.80;63.63;100239.61;1829310;76;21178;-59
2021/03/04 07:20:20;;;;;;;26.12;15.15;;;;;;;4.87;63.53;100230.50;1795470;77;21162;-64
2021/03/04 07:22:50;;;;;;;26.15;14.95;;;;;;;4.92;63.12;100232.37;1832572;77;21207;-62
2021/03/04 07:25:18;;;;;;;23.05;14.25;;;;;;;5.17;62.92;100220.48;1842037;77;21623;-62
2021/03/04 07:27:45;;;;;;;31.65;16.25;;;;;;;5.17;62.92;100220.48;1836282;77;21698;-62
2021/03/04 07:30:16;;;;;;;27.67;15.85;;;;;;;5.39;62.36;100219.55;1826584;76;21160;-60
2021/03/04 07:32:44;;;;;;;25.77;14.78;;;;;;;5.57;61.78;100212.84;1831683;75;21536;-61
2021/03/04 07:35:12;;;;;;;27.05;15.48;;;;;;;5.73;60.84;100212.27;1774130;78;21449;-59
2021/03/04 07:37:43;;;;;;;23.87;14.47;;;;;;;5.73;60.84;100212.27;1756613;79;21563;-60
2021/03/04 07:40:12;;;;;;;25.62;15.20;;;;;;;5.76;60.75;100206.00;1778874;78;21632;-59
2021/03/04 07:42:41;;;;;;;24.82;15.23;;;;;;;5.79;60.60;100206.28;1770954;77;21191;-59
2021/03/04 07:45:15;;;;;;;24.43;13.22;;;;;;;5.79;60.60;100206.28;1722483;80;21216;-58
2021/03/04 07:47:43;;;;;;;24.85;13.83;;;;;;;5.82;60.41;100182.60;1793243;78;21247;-60
2021/03/04 07:50:22;;;;;;;24.20;14.23;;;;;;;5.83;60.45;100187.70;1755747;78;21722;-61
2021/03/04 07:52:49;;;;;;;24.52;15.00;;;;;;;5.94;60.61;100176.11;1766683;80;21653;-59
2021/03/04 07:55:17;;;;;;;21.37;13.72;;;;;;;5.94;60.61;100176.11;1745038;78;21214;-61
2021/03/04 07:57:47;;;;;;;22.37;14.18;;;;;;;6.08;60.20;100159.56;1812368;77;21117;-60
2021/03/04 08:00:16;;;;;;;23.55;14.50;;;;;;;6.08;60.20;100159.56;1802175;77;21333;-61
2021/03/04 08:02:44;;;;;;;24.07;14.65;;;;;;;6.16;59.73;100155.16;1801094;78;21209;-59
2021/03/04 08:05:31;;;;;;;23.77;15.20;;;;;;;6.27;59.66;100150.53;1803362;77;21201;-60
2021/03/04 08:08:15;;;;;;;25.48;13.85;;;;;;;6.41;59.36;100140.02;1742600;79;21217;-61
2021/03/04 08:10:54;;;;;;;28.02;15.20;;;;;;;6.41;59.36;100140.02;1768937;77;21169;-60
2021/03/04 08:13:38;;;;;;;26.65;16.37;;;;;;;6.51;58.78;100141.55;1804538;77;21388;-61
2021/03/04 08:16:13;;;;;;;28.65;14.68;;;;;;;6.56;58.80;100136.85;1804638;78;21604;-59
2021/03/04 08:18:45;;;;;;;23.62;15.08;;;;;;;6.57;58.46;100129.36;1804510;78;21174;-59
2021/03/04 08:21:12;;;;;;;23.87;15.80;;;;;;;6.58;58.13;100122.37;1805681;77;21612;-60
2021/03/04 08:23:43;;;;;;;21.37;13.85;;;;;;;6.59;58.34;100127.95;1752465;80;21639;-59
2021/03/04 08:26:21;;;;;;;23.10;13.05;;;;;;;6.60;58.45;100119.17;1785549;78;21189;-60
2021/03/04 08:28:49;;;;;;;30.65;14.23;;;;;;;6.65;58.50;100110.07;1751977;78;21619;-62
2021/03/04 08:31:17;;;;;;;25.05;15.30;;;;;;;6.77;58.59;100109.70;1783976;78;21149;-60
2021/03/04 08:33:55;;;;;;;25.82;16.15;;;;;;;6.86;58.08;100103.03;1747290;80;21173;-60
2021/03/04 08:36:22;;;;;;;25.08;14.83;;;;;;;6.94;58.10;100107.71;1805189;78;21085;-61
2021/03/04 08:38:50;;;;;;;28.32;16.57;;;;;;;7.04;57.89;100098.28;1787842;77;21225;-63
2021/03/04 08:41:22;;;;;;;24.00;15.55;;;;;;;7.11;57.71;100093.45;1782279;79;21449;-59
2021/03/04 08:43:51;;;;;;;25.20;14.90;;;;;;;7.18;57.51;100082.94;1800241;78;21619;-58
2021/03/04 08:46:19;;;;;;;28.30;15.72;;;;;;;7.25;57.08;100087.61;1816632;77;21832;-60
2021/03/04 08:48:48;;;;;;;28.30;14.53;;;;;;;7.30;57.04;100085.98;1812481;77;21123;-60
2021/03/04 08:51:17;;;;;;;26.30;14.53;;;;;;;7.32;56.90;100076.72;1796216;77;22106;-59
2021/03/04 08:53:46;;;;;;;25.08;14.10;;;;;;;7.37;56.61;100075.91;1738124;80;21134;-59
2021/03/04 08:56:13;;;;;;;25.48;15.20;;;;;;;7.40;56.44;100083.07;1775891;80;22557;-61
2021/03/04 08:58:44;;;;;;;24.90;15.18;;;;;;;7.41;56.75;100074.73;1753105;80;21259;-59
2021/03/04 09:01:12;;;;;;;23.62;15.00;;;;;;;7.47;56.81;100073.00;1744104;80;21159;-60
2021/03/04 09:03:44;;;;;;;23.87;14.93;;;;;;;7.54;56.42;100070.77;1758714;80;21824;-62
2021/03/04 09:06:17;;;;;;;27.45;15.08;;;;;;;7.61;56.54;100074.13;1745969;80;21150;-59
2021/03/04 09:08:49;;;;;;;24.47;15.72;;;;;;;7.69;55.73;100080.61;1752175;80;21242;-59
2021/03/04 09:11:33;;;;;;;26.60;15.58;;;;;;;7.70;55.72;100063.93;1750734;80;21194;-59
2021/03/04 09:14:10;;;;;;;27.05;16.52;;;;;;;7.72;55.82;100063.37;1725132;80;21227;-59
2021/03/04 09:16:41;;;;;;;24.75;14.30;;;;;;;7.74;55.56;100048.38;1750691;80;21426;-60
2021/03/04 09:19:29;;;;;;;23.32;14.80;;;;;;;7.79;55.71;100058.03;1751778;80;21210;-62
2021/03/04 09:21:58;;;;;;;26.30;15.98;;;;;;;7.81;55.63;100052.20;1754995;80;21167;-60
2021/03/04 09:24:27;;;;;;;22.77;14.55;;;;;;;7.86;55.79;100026.98;1725092;82;21131;-62
2021/03/04 09:26:55;;;;;;;25.37;16.57;;;;;;;7.95;55.43;100025.83;1744085;80;21155;-61
2021/03/04 09:29:23;;;;;;;26.15;17.23;;;;;;;8.00;55.24;100022.39;1770270;80;21310;-63
2021/03/04 09:31:52;;;;;;;28.85;15.32;;;;;;;8.05;55.34;100009.41;1757032;80;21183;-62
2021/03/04 09:34:39;;;;;;;26.62;14.85;;;;;;;8.10;55.45;100010.74;1764427;80;21163;-60
2021/03/04 09:37:16;;;;;;;24.77;15.10;;;;;;;8.19;55.10;100001.34;1744638;80;21173;-58
2021/03/04 09:39:49;;;;;;;27.87;16.60;;;;;;;8.29;55.01;99996.23;1733419;80;21166;-60
2021/03/04 09:42:19;;;;;;;25.27;17.20;;;;;;;8.35;54.76;100000.53;1749783;80;21388;-60
2021/03/04 09:44:48;;;;;;;24.95;15.28;;;;;;;8.39;54.79;100002.44;1724201;80;21264;-58
2021/03/04 09:47:27;;;;;;;25.68;14.55;;;;;;;8.44;54.55;99996.84;1767418;80;21214;-61
2021/03/04 09:49:56;;;;;;;25.80;15.50;;;;;;;8.48;54.33;100011.41;1736738;80;21182;-59
2021/03/04 09:52:29;;;;;;;27.52;15.48;;;;;;;8.51;54.23;99996.27;1751894;79;21148;-57
2021/03/04 09:55:11;;;;;;;27.87;16.52;;;;;;;8.52;54.27;99999.27;1788812;79;21288;-60
2021/03/04 09:57:40;;;;;;;29.20;15.43;;;;;;;8.58;54.18;99976.95;1746453;78;21158;-59
2021/03/04 10:00:20;;;;;;;24.15;14.95;;;;;;;8.64;54.33;99972.55;1785668;78;21159;-58
2021/03/04 10:02:49;;;;;;;25.80;15.50;;;;;;;8.74;53.90;99976.57;1748658;79;21190;-59
2021/03/04 10:05:20;;;;;;;23.75;14.65;;;;;;;8.82;53.67;99963.69;1756224;79;21111;-59
2021/03/04 10:07:48;;;;;;;26.00;15.25;;;;;;;8.85;53.66;99964.76;1744727;79;22257;-60
2021/03/04 10:10:21;;;;;;;29.18;16.75;;;;;;;8.91;53.51;99958.20;1774548;78;21190;-60
2021/03/04 10:12:58;;;;;;;25.37;15.90;;;;;;;8.97;53.46;99945.89;1752767;80;21666;-59
2021/03/04 10:15:35;;;;;;;23.18;15.03;;;;;;;9.05;53.33;99939.55;1755021;79;21184;-59
2021/03/04 10:18:09;;;;;;;27.75;15.50;;;;;;;9.11;52.82;99936.89;1774184;78;21212;-60
2021/03/04 10:20:40;;;;;;;33.13;16.85;;;;;;;9.14;52.58;99937.97;1790865;78;21374;-58
2021/03/04 10:23:08;;;;;;;22.52;15.55;;;;;;;9.20;52.59;99930.91;1786490;78;21175;-59
2021/03/04 10:25:36;;;;;;;26.77;16.57;;;;;;;9.26;52.77;99923.86;1788526;78;21135;-61
2021/03/04 10:28:07;;;;;;;24.90;16.52;;;;;;;9.34;52.48;99925.84;1785342;78;21171;-59
2021/03/04 10:30:35;;;;;;;24.27;16.82;;;;;;;9.37;52.37;99920.34;1787242;79;21191;-59
2021/03/04 10:33:06;;;;;;;25.32;15.90;;;;;;;9.42;52.29;99921.28;1753284;80;21193;-59
2021/03/04 10:35:38;;;;;;;33.90;20.43;;;;;;;9.43;52.15;99921.16;1771985;78;21139;-60
2021/03/04 10:38:05;;;;;;;26.55;17.07;;;;;;;9.45;52.29;99912.66;1801712;77;21185;-58
2021/03/04 10:40:33;;;;;;;35.70;18.57;;;;;;;9.54;52.28;99904.98;1804381;78;21176;-59
2021/03/04 10:43:01;;;;;;;37.35;16.97;;;;;;;9.63;52.00;99902.42;1751281;80;21161;-58
2021/03/04 10:45:29;;;;;;;27.55;16.02;;;;;;;9.72;51.86;99898.19;1785312;79;21186;-59
2021/03/04 10:47:56;;;;;;;28.38;16.70;;;;;;;9.79;51.30;99882.25;1755138;78;21196;-59
2021/03/04 10:50:24;;;;;;;30.12;17.77;;;;;;;9.81;50.95;99873.75;1756992;79;21635;-59
2021/03/04 10:52:52;;;;;;;32.15;17.73;;;;;;;9.80;51.28;99868.62;1787351;78;21170;-58
2021/03/04 10:55:24;;;;;;;24.98;16.93;;;;;;;9.86;50.99;99874.19;1778735;78;21515;-59
2021/03/04 10:57:51;;;;;;;26.93;16.60;;;;;;;9.92;50.87;99861.48;1749634;79;21557;-58
2021/03/04 11:00:19;;;;;;;26.00;15.60;;;;;;;10.00;50.55;99855.95;1749608;78;21192;-58
2021/03/04 11:02:47;;;;;;;26.42;17.20;;;;;;;10.04;50.26;99840.73;1754483;79;21197;-59
2021/03/04 11:05:15;;;;;;;27.60;16.42;;;;;;;10.06;50.21;99845.38;1804486;78;21105;-60
2021/03/04 11:07:42;;;;;;;27.85;16.73;;;;;;;10.11;50.12;99839.23;1802470;78;21581;-64
2021/03/04 11:10:11;;;;;;;29.23;16.93;;;;;;;10.20;49.97;99843.70;1799756;78;21244;-60
2021/03/04 11:12:40;;;;;;;32.42;17.48;;;;;;;10.29;49.83;99835.95;1810301;78;21153;-60
2021/03/04 11:15:09;;;;;;;30.82;18.20;;;;;;;10.35;50.07;99830.20;1801851;77;21129;-58
2021/03/04 11:17:36;;;;;;;27.22;17.52;;;;;;;10.40;49.62;99824.87;1807113;78;21121;-59
2021/03/04 11:20:06;;;;;;;32.38;16.95;;;;;;;10.44;49.60;99832.03;1753314;80;21235;-59
2021/03/04 11:22:34;;;;;;;28.75;16.45;;;;;;;10.47;49.49;99825.66;1799663;78;21206;-59
2021/03/04 11:25:02;;;;;;;28.70;16.32;;;;;;;10.54;49.72;99817.55;1771044;79;21750;-62
2021/03/04 11:27:29;;;;;;;22.37;15.40;;;;;;;10.65;49.35;99815.30;1778176;78;21239;-59
2021/03/04 11:29:57;;;;;;;30.72;17.85;;;;;;;10.71;49.32;99810.81;1759263;80;21596;-58
2021/03/04 11:32:26;;;;;;;29.40;16.60;;;;;;;10.80;49.35;99807.84;1786277;78;21162;-58
2021/03/04 11:34:55;;;;;;;28.45;17.87;;;;;;;10.87;48.89;99801.86;1750586;80;21139;-58